createdAt,value
2022-09-19T00:02:25.482Z,0.99
2022-09-19T00:03:53.457Z,0.95
2022-09-19T00:05:15.946Z,0.94
2022-09-19T00:06:38.171Z,1.07
2022-09-19T00:07:59.579Z,0.74
2022-09-19T00:09:23.762Z,0.89
2022-09-19T00:10:45.581Z,0.90
2022-09-19T00:12:06.945Z,1.31
2022-09-19T00:13:29.373Z,1.12
2022-09-19T00:14:50.686Z,0.99
2022-09-19T00:16:13.182Z,1.11
2022-09-19T00:17:34.551Z,2.16
2022-09-19T00:18:56.279Z,1.31
2022-09-19T00:20:17.884Z,0.98
2022-09-19T00:21:41.726Z,0.91
2022-09-19T00:23:02.738Z,0.99
2022-09-19T00:24:24.598Z,1.19
2022-09-19T00:25:45.758Z,1.04
2022-09-19T00:27:07.570Z,1.10
2022-09-19T00:28:29.626Z,1.02
2022-09-19T00:29:50.889Z,0.98
2022-09-19T00:32:24.626Z,1.18
2022-09-19T00:33:47.835Z,1.12
2022-09-19T00:35:09.386Z,0.91
2022-09-19T00:36:31.134Z,1.07
2022-09-19T00:37:52.327Z,1.06
2022-09-19T00:39:15.371Z,1.26
2022-09-19T00:40:36.718Z,1.20
2022-09-19T00:41:58.006Z,1.00
2022-09-19T00:43:19.668Z,1.13
2022-09-19T00:44:44.761Z,1.02
2022-09-19T00:46:06.534Z,1.10
2022-09-19T00:47:31.275Z,0.90
2022-09-19T00:49:01.998Z,1.30
2022-09-19T00:50:28.631Z,0.95
2022-09-19T00:51:52.144Z,1.33
2022-09-19T00:53:15.972Z,1.02
2022-09-19T00:54:43.867Z,0.98
2022-09-19T00:56:05.227Z,1.07
2022-09-19T00:58:40.739Z,1.08
2022-09-19T01:00:01.911Z,1.01
2022-09-19T01:01:23.729Z,1.13
2022-09-19T01:02:45.081Z,1.11
2022-09-19T01:04:16.076Z,1.09
2022-09-19T01:07:08.766Z,1.21
2022-09-19T01:08:36.847Z,1.21
2022-09-19T01:11:38.792Z,1.19
2022-09-19T01:14:53.207Z,1.39
2022-09-19T01:16:19.399Z,1.52
2022-09-19T01:17:46.757Z,1.75
2022-09-19T01:19:32.910Z,1.32
2022-09-19T01:21:07.133Z,1.19
2022-09-19T01:24:38.241Z,1.33
2022-09-19T01:26:25.356Z,1.14
2022-09-19T01:28:02.130Z,1.14
2022-09-19T01:29:23.720Z,1.56
2022-09-19T01:30:57.782Z,1.19
2022-09-19T01:32:21.445Z,1.58
2022-09-19T01:33:44.879Z,1.20
2022-09-19T01:35:07.198Z,1.46
2022-09-19T01:36:47.265Z,1.47
2022-09-19T01:38:10.511Z,1.29
2022-09-19T01:39:33.389Z,1.34
2022-09-19T01:40:54.619Z,1.10
2022-09-19T01:42:19.162Z,1.40
2022-09-19T01:43:41.465Z,1.32
2022-09-19T01:45:03.293Z,1.40
2022-09-19T01:47:53.604Z,1.83
2022-09-19T01:49:24.528Z,1.93
2022-09-19T01:51:04.664Z,1.44
2022-09-19T01:52:29.940Z,1.26
2022-09-19T01:54:03.763Z,1.40
2022-09-19T01:55:50.202Z,1.34
2022-09-19T01:57:30.562Z,1.52
2022-09-19T02:00:15.543Z,1.46
2022-09-19T02:03:19.936Z,1.82
2022-09-19T02:06:48.226Z,1.45
2022-09-19T02:08:22.395Z,1.57
2022-09-19T02:09:56.108Z,1.47
2022-09-19T02:11:24.972Z,1.57
2022-09-19T02:12:53.811Z,1.92
2022-09-19T02:14:17.449Z,1.50
2022-09-19T02:15:38.451Z,1.54
2022-09-19T02:17:08.186Z,1.84
2022-09-19T02:19:49.106Z,1.57
2022-09-19T02:21:13.637Z,1.59
2022-09-19T02:22:37.761Z,1.47
2022-09-19T02:23:58.748Z,1.50
2022-09-19T02:25:26.084Z,1.81
2022-09-19T02:26:47.152Z,1.46
2022-09-19T02:28:10.998Z,1.70
2022-09-19T02:29:32.345Z,1.49
2022-09-19T02:30:54.088Z,1.68
2022-09-19T02:32:16.566Z,2.01
2022-09-19T02:33:37.544Z,1.61
2022-09-19T02:34:58.950Z,1.41
2022-09-19T02:36:25.054Z,1.35
2022-09-19T02:37:56.327Z,1.53
2022-09-19T02:39:35.329Z,1.29
2022-09-19T02:41:09.231Z,1.67
2022-09-19T02:42:34.260Z,1.31
2022-09-19T02:44:01.943Z,1.58
2022-09-19T02:46:59.752Z,1.57
2022-09-19T02:48:27.269Z,1.51
2022-09-19T02:49:53.390Z,1.27
2022-09-19T02:52:29.923Z,1.33
2022-09-19T02:55:09.638Z,1.15
2022-09-19T02:56:32.619Z,1.23
2022-09-19T02:57:56.360Z,1.42
2022-09-19T02:59:27.272Z,1.19
2022-09-19T03:00:50.084Z,1.23
2022-09-19T03:03:56.903Z,1.08
2022-09-19T03:05:33.781Z,1.55
2022-09-19T03:08:36.778Z,1.16
2022-09-19T03:10:13.415Z,1.42
2022-09-19T03:11:41.553Z,1.24
2022-09-19T03:13:12.303Z,0.97
2022-09-19T03:14:40.259Z,1.26
2022-09-19T03:16:06.262Z,1.17
2022-09-19T03:19:03.418Z,1.31
2022-09-19T03:20:34.888Z,1.23
2022-09-19T03:21:56.772Z,1.48
2022-09-19T03:23:19.702Z,1.19
2022-09-19T03:24:41.881Z,1.20
2022-09-19T03:26:03.656Z,1.16
2022-09-19T03:27:24.824Z,1.72
2022-09-19T03:28:45.906Z,4.24
2022-09-19T03:30:14.221Z,1.74
2022-09-19T03:31:36.121Z,3.12
2022-09-19T03:32:57.466Z,1.43
2022-09-19T03:34:18.748Z,1.45
2022-09-19T03:35:39.886Z,3.07
2022-09-19T03:37:01.106Z,3.08
2022-09-19T03:38:23.545Z,1.79
2022-09-19T03:39:46.032Z,1.62
2022-09-19T03:41:07.670Z,2.07
2022-09-19T03:42:28.874Z,2.95
2022-09-19T03:43:50.483Z,2.01
2022-09-19T03:45:11.892Z,1.73
2022-09-19T03:46:33.734Z,2.01
2022-09-19T03:47:54.752Z,1.76
2022-09-19T03:49:15.880Z,1.76
2022-09-19T03:50:37.229Z,3.18
2022-09-19T03:51:58.338Z,3.94
2022-09-19T03:53:20.006Z,1.71
2022-09-19T03:54:41.314Z,1.85
2022-09-19T03:56:03.788Z,1.58
2022-09-19T03:57:24.804Z,1.12
2022-09-19T03:58:46.687Z,0.90
2022-09-19T04:00:09.615Z,0.84
2022-09-19T04:01:31.216Z,1.23
2022-09-19T04:02:52.609Z,1.22
2022-09-19T04:04:14.054Z,1.02
2022-09-19T04:05:35.429Z,1.26
2022-09-19T04:06:57.194Z,1.12
2022-09-19T04:08:19.219Z,1.36
2022-09-19T04:09:40.260Z,1.22
2022-09-19T04:11:02.127Z,1.03
2022-09-19T04:12:23.990Z,1.33
2022-09-19T04:13:45.071Z,1.08
2022-09-19T04:15:08.075Z,1.11
2022-09-19T04:16:29.486Z,1.11
2022-09-19T04:17:50.678Z,1.08
2022-09-19T04:19:12.272Z,1.30
2022-09-19T04:20:34.180Z,1.17
2022-09-19T04:21:55.769Z,1.14
2022-09-19T04:23:18.550Z,1.43
2022-09-19T04:24:39.582Z,1.31
2022-09-19T04:26:00.915Z,1.14
2022-09-19T04:27:23.738Z,1.18
2022-09-19T04:28:45.327Z,1.19
2022-09-19T04:30:07.559Z,1.33
2022-09-19T04:31:30.447Z,1.29
2022-09-19T04:32:51.874Z,1.02
2022-09-19T04:34:13.113Z,1.30
2022-09-19T04:35:36.621Z,1.71
2022-09-19T04:36:58.517Z,1.32
2022-09-19T04:38:19.813Z,1.29
2022-09-19T04:39:41.961Z,1.38
2022-09-19T04:41:03.455Z,1.18
2022-09-19T04:42:24.833Z,1.31
2022-09-19T04:43:46.173Z,1.36
2022-09-19T04:45:09.469Z,1.41
2022-09-19T04:46:31.572Z,1.33
2022-09-19T04:47:52.911Z,1.43
2022-09-19T04:49:14.511Z,1.52
2022-09-19T04:50:36.374Z,1.61
2022-09-19T04:51:57.964Z,1.31
2022-09-19T04:53:21.173Z,1.34
2022-09-19T04:54:42.997Z,1.14
2022-09-19T04:56:05.084Z,1.18
2022-09-19T04:57:26.580Z,1.16
2022-09-19T04:58:47.937Z,1.29
2022-09-19T05:00:10.399Z,1.56
2022-09-19T05:01:31.647Z,1.39
2022-09-19T05:02:54.092Z,1.83
2022-09-19T05:04:15.248Z,1.18
2022-09-19T05:05:36.883Z,1.20
2022-09-19T05:06:58.371Z,1.23
2022-09-19T05:09:32.224Z,0.99
2022-09-19T05:12:05.916Z,1.13
2022-09-19T05:14:42.262Z,1.19
2022-09-19T05:16:04.394Z,1.57
2022-09-19T05:17:26.101Z,0.84
2022-09-19T05:18:54.517Z,1.07
2022-09-19T05:20:17.316Z,1.10
2022-09-19T05:21:41.194Z,1.28
2022-09-19T05:23:02.692Z,1.19
2022-09-19T05:24:24.134Z,1.28
2022-09-19T05:25:45.768Z,1.01
2022-09-19T05:27:08.948Z,1.28
2022-09-19T05:28:30.384Z,1.11
2022-09-19T05:29:51.930Z,1.36
2022-09-19T05:31:14.829Z,1.28
2022-09-19T05:32:37.002Z,1.17
2022-09-19T05:33:58.352Z,1.00
2022-09-19T05:35:20.997Z,1.15
2022-09-19T05:36:42.516Z,0.94
2022-09-19T05:38:03.789Z,1.34
2022-09-19T05:39:25.261Z,1.08
2022-09-19T05:40:46.981Z,0.96
2022-09-19T05:42:09.126Z,1.41
2022-09-19T05:43:31.136Z,1.23
2022-09-19T05:44:52.434Z,0.99
2022-09-19T05:46:14.227Z,1.11
2022-09-19T05:47:35.559Z,4.62
2022-09-19T05:48:57.328Z,1.84
2022-09-19T05:50:22.798Z,1.85
2022-09-19T05:51:44.285Z,5.45
2022-09-19T05:53:05.791Z,2.08
2022-09-19T05:54:28.299Z,2.07
2022-09-19T05:55:49.759Z,1.91
2022-09-19T05:57:11.195Z,1.59
2022-09-19T05:58:32.911Z,1.59
2022-09-19T05:59:54.256Z,1.77
2022-09-19T06:01:15.833Z,1.61
2022-09-19T06:02:37.425Z,1.77
2022-09-19T06:05:15.802Z,1.42
2022-09-19T06:06:37.567Z,1.62
2022-09-19T06:07:59.204Z,1.73
2022-09-19T06:09:20.509Z,1.48
2022-09-19T06:10:45.998Z,1.71
2022-09-19T06:12:06.462Z,1.72
2022-09-19T06:13:29.786Z,1.39
2022-09-19T06:14:51.272Z,1.43
2022-09-19T06:17:37.278Z,1.51
2022-09-19T06:18:58.676Z,2.00
2022-09-19T06:20:20.973Z,1.51
2022-09-19T06:21:42.977Z,1.63
2022-09-19T06:23:05.255Z,1.32
2022-09-19T06:24:26.479Z,1.50
2022-09-19T06:27:05.887Z,1.27
2022-09-19T06:28:27.545Z,1.32
2022-09-19T06:29:48.659Z,1.57
2022-09-19T06:32:26.233Z,1.62
2022-09-19T06:33:47.647Z,1.67
2022-09-19T06:35:09.091Z,1.52
2022-09-19T06:36:30.887Z,1.31
2022-09-19T06:37:56.092Z,1.72
2022-09-19T06:39:17.231Z,1.59
2022-09-19T06:40:38.559Z,1.16
2022-09-19T06:43:19.457Z,1.34
2022-09-19T06:44:40.911Z,1.49
2022-09-19T06:46:02.444Z,1.36
2022-09-19T06:47:23.641Z,1.65
2022-09-19T06:48:44.892Z,2.02
2022-09-19T06:51:22.119Z,1.69
2022-09-19T06:52:46.339Z,1.56
2022-09-19T06:54:07.525Z,1.71
2022-09-19T06:55:34.026Z,1.59
2022-09-19T06:56:55.732Z,1.74
2022-09-19T06:58:17.091Z,1.74
2022-09-19T06:59:38.118Z,1.69
2022-09-19T07:02:12.788Z,1.73
2022-09-19T07:03:36.962Z,1.50
2022-09-19T07:04:58.177Z,2.04
2022-09-19T07:06:20.033Z,1.71
2022-09-19T07:07:41.227Z,1.39
2022-09-19T07:09:03.257Z,1.49
2022-09-19T07:10:24.906Z,1.84
2022-09-19T07:11:46.159Z,1.50
2022-09-19T07:13:09.301Z,1.67
2022-09-19T07:17:01.337Z,1.19
2022-09-19T07:18:23.213Z,1.47
2022-09-19T07:19:44.637Z,1.50
2022-09-19T07:21:05.829Z,1.08
2022-09-19T07:22:27.148Z,1.32
2022-09-19T07:23:48.297Z,1.06
2022-09-19T07:25:09.594Z,0.96
2022-09-19T07:26:31.015Z,2.14
2022-09-19T07:29:09.678Z,1.02
2022-09-19T07:30:33.102Z,1.59
2022-09-19T07:31:55.347Z,1.10
2022-09-19T07:33:18.611Z,1.19
2022-09-19T07:35:53.514Z,1.57
2022-09-19T07:38:32.882Z,0.91
2022-09-19T07:41:10.748Z,0.78
2022-09-19T07:42:34.357Z,0.86
2022-09-19T07:43:56.179Z,1.13
2022-09-19T07:45:17.973Z,0.70
2022-09-19T07:46:39.307Z,0.75
2022-09-19T07:48:00.962Z,1.01
2022-09-19T07:49:23.314Z,0.95
2022-09-19T07:50:50.855Z,2.12
2022-09-19T07:52:09.279Z,1.22
2022-09-19T07:53:30.654Z,1.01
2022-09-19T07:54:51.992Z,0.90
2022-09-19T07:56:14.028Z,1.09
2022-09-19T07:57:35.907Z,1.18
2022-09-19T07:58:57.327Z,0.90
2022-09-19T08:00:28.415Z,0.72
2022-09-19T08:01:50.682Z,1.20
2022-09-19T08:03:13.191Z,0.78
2022-09-19T08:04:34.461Z,0.73
2022-09-19T08:05:57.521Z,0.90
2022-09-19T08:07:18.820Z,0.62
2022-09-19T08:08:40.372Z,0.72
2022-09-19T08:10:01.475Z,0.74
2022-09-19T08:11:23.283Z,0.81
2022-09-19T08:12:44.380Z,0.87
2022-09-19T08:14:05.797Z,1.32
2022-09-19T08:15:27.359Z,0.75
2022-09-19T08:18:09.684Z,0.70
2022-09-19T08:19:31.272Z,0.70
2022-09-19T08:20:53.861Z,0.90
2022-09-19T08:22:15.344Z,0.73
2022-09-19T08:23:40.414Z,0.68
2022-09-19T08:24:59.611Z,0.81
2022-09-19T08:26:21.568Z,0.82
2022-09-19T08:27:44.378Z,0.69
2022-09-19T08:29:07.171Z,0.80
2022-09-19T08:30:30.940Z,0.90
2022-09-19T08:31:52.464Z,0.68
2022-09-19T08:33:13.794Z,0.93
2022-09-19T08:34:35.236Z,0.92
2022-09-19T08:35:59.344Z,1.03
2022-09-19T08:37:20.915Z,0.95
2022-09-19T08:38:42.336Z,0.72
2022-09-19T08:40:04.788Z,0.88
2022-09-19T08:41:32.911Z,0.70
2022-09-19T08:45:03.767Z,0.81
2022-09-19T08:48:04.987Z,0.95
2022-09-19T08:50:44.984Z,1.37
2022-09-19T08:52:19.295Z,1.01
2022-09-19T08:53:43.694Z,0.94
2022-09-19T08:55:07.315Z,0.85
2022-09-19T08:56:29.686Z,0.71
2022-09-19T08:57:57.263Z,0.99
2022-09-19T08:59:31.566Z,0.61
2022-09-19T09:01:07.672Z,0.77
2022-09-19T09:03:07.859Z,0.99
2022-09-19T09:07:00.590Z,1.14
2022-09-19T09:33:33.450Z,1.24
2022-09-19T09:35:11.596Z,0.99
2022-09-19T09:38:41.998Z,0.95
2022-09-19T09:41:47.774Z,1.78
2022-09-19T09:43:21.705Z,0.86
2022-09-19T09:45:14.047Z,0.84
2022-09-19T09:46:58.294Z,1.01
2022-09-19T09:48:34.328Z,1.59
2022-09-19T09:53:52.690Z,1.34
2022-09-19T09:56:49.584Z,0.96
2022-09-19T09:58:27.021Z,1.17
2022-09-19T10:00:03.159Z,1.47
2022-09-19T10:01:54.660Z,1.31
2022-09-19T10:03:29.236Z,1.32
2022-09-19T10:04:57.383Z,1.00
2022-09-19T10:18:42.087Z,0.99
2022-09-19T10:20:06.142Z,1.20
2022-09-19T10:21:27.424Z,1.10
2022-09-19T10:22:49.261Z,1.89
2022-09-19T10:24:45.666Z,0.92
2022-09-19T10:26:07.510Z,1.20
2022-09-19T10:27:36.102Z,1.38
2022-09-19T10:28:57.766Z,1.02
2022-09-19T10:31:47.998Z,0.93
2022-09-19T10:34:37.898Z,1.24
2022-09-19T10:36:03.470Z,1.27
2022-09-19T10:37:25.106Z,1.32
2022-09-19T10:38:51.033Z,1.41
2022-09-19T10:40:14.656Z,1.81
2022-09-19T10:41:35.993Z,1.27
2022-09-19T10:42:57.888Z,1.35
2022-09-19T10:44:21.404Z,1.52
2022-09-19T10:45:45.832Z,1.58
2022-09-19T10:47:08.779Z,1.94
2022-09-19T10:49:51.855Z,1.28
2022-09-19T10:51:13.068Z,2.39
2022-09-19T10:52:50.884Z,2.96
2022-09-19T10:55:24.265Z,1.84
2022-09-19T10:56:46.063Z,1.92
2022-09-19T10:58:16.810Z,2.18
2022-09-19T10:59:39.039Z,2.19
2022-09-19T11:01:08.613Z,2.56
2022-09-19T11:02:29.990Z,2.12
2022-09-19T11:05:28.497Z,1.81
2022-09-19T11:07:00.334Z,1.50
2022-09-19T11:08:25.549Z,1.25
2022-09-19T11:09:46.938Z,1.07
2022-09-19T11:11:32.195Z,2.05
2022-09-19T11:13:08.477Z,1.58
2022-09-19T11:16:00.104Z,1.06
2022-09-19T11:18:00.417Z,1.22
2022-09-19T11:19:31.031Z,1.34
2022-09-19T11:22:27.444Z,1.64
2022-09-19T11:23:55.479Z,1.64
2022-09-19T11:25:42.759Z,1.28
2022-09-19T11:27:19.531Z,1.65
2022-09-19T11:28:56.019Z,1.66
2022-09-19T11:35:18.602Z,1.63
2022-09-19T11:36:39.531Z,1.31
2022-09-19T11:40:04.423Z,1.53
2022-09-19T11:41:43.118Z,1.30
2022-09-19T11:43:25.441Z,5.86
2022-09-19T11:45:15.821Z,1.54
2022-09-19T11:46:47.000Z,1.08
2022-09-19T11:49:54.410Z,1.08
2022-09-19T11:51:18.821Z,1.02
2022-09-19T11:52:52.893Z,0.92
2022-09-19T11:56:00.110Z,1.03
2022-09-19T11:57:37.390Z,1.21
2022-09-19T11:59:05.984Z,0.81
2022-09-19T12:00:27.673Z,1.04
2022-09-19T12:02:03.982Z,0.96
2022-09-19T12:04:53.915Z,1.03
2022-09-19T12:08:10.571Z,0.99
2022-09-19T12:11:11.068Z,1.77
2022-09-19T12:12:32.850Z,0.51
2022-09-19T12:19:49.125Z,0.37
2022-09-19T12:21:11.414Z,0.61
2022-09-19T12:23:47.046Z,0.50
2022-09-19T12:25:17.319Z,0.63
2022-09-19T12:27:06.527Z,0.30
2022-09-19T12:28:31.316Z,0.34
2022-09-19T12:29:59.147Z,0.34
2022-09-19T12:31:23.911Z,0.30
2022-09-19T12:33:00.299Z,0.40
2022-09-19T12:34:40.341Z,0.71
2022-09-19T12:36:06.562Z,0.59
2022-09-19T12:37:40.704Z,0.50
2022-09-19T12:39:14.079Z,0.63
2022-09-19T12:40:43.072Z,1.00
2022-09-19T12:42:08.505Z,0.91
2022-09-19T12:43:42.934Z,0.43
2022-09-19T12:45:12.364Z,0.61
2022-09-19T12:46:43.214Z,0.61
2022-09-19T12:48:14.314Z,0.53
2022-09-19T12:49:56.953Z,0.52
2022-09-19T12:51:30.567Z,1.12
2022-09-19T12:54:13.747Z,0.33
2022-09-19T12:55:38.402Z,0.40
2022-09-19T12:58:19.760Z,0.48
2022-09-19T12:59:42.736Z,0.37
2022-09-19T13:01:22.762Z,0.39
2022-09-19T13:04:09.607Z,0.42
2022-09-19T13:05:39.884Z,0.47
2022-09-19T13:07:07.865Z,0.58
2022-09-19T13:08:34.993Z,0.40
2022-09-19T13:10:03.058Z,0.88
2022-09-19T13:11:31.292Z,0.46
2022-09-19T13:13:01.958Z,0.57
2022-09-19T13:15:50.969Z,0.37
2022-09-19T13:17:13.786Z,0.76
2022-09-19T13:18:35.181Z,0.44
2022-09-19T13:19:58.105Z,0.40
2022-09-19T13:24:04.715Z,0.26
2022-09-19T13:25:27.494Z,0.30
2022-09-19T13:26:53.926Z,0.47
2022-09-19T13:28:22.028Z,0.59
2022-09-19T13:29:46.041Z,0.29
2022-09-19T13:31:09.717Z,0.40
2022-09-19T13:32:56.054Z,0.50
2022-09-19T13:34:40.186Z,0.30
2022-09-19T13:37:31.311Z,0.53
2022-09-19T13:38:56.792Z,0.51
2022-09-19T13:40:24.177Z,0.39
2022-09-19T13:41:52.454Z,0.76
2022-09-19T13:43:18.260Z,0.74
2022-09-19T13:44:50.246Z,1.15
2022-09-19T13:47:28.270Z,0.48
2022-09-19T13:48:52.954Z,0.55
2022-09-19T13:50:23.484Z,0.52
2022-09-19T13:51:45.926Z,0.51
2022-09-19T13:53:10.785Z,0.50
2022-09-19T13:55:46.666Z,0.77
2022-09-19T13:57:13.320Z,0.72
2022-09-19T13:58:35.448Z,0.93
2022-09-19T13:59:57.198Z,0.90
2022-09-19T14:01:19.019Z,0.84
2022-09-19T14:02:45.813Z,0.66
2022-09-19T14:05:34.166Z,0.93
2022-09-19T14:11:36.724Z,0.77
2022-09-19T14:12:59.573Z,0.78
2022-09-19T14:14:46.978Z,1.59
2022-09-19T14:16:32.145Z,0.90
2022-09-19T14:19:44.924Z,1.57
2022-09-19T14:21:11.892Z,0.89
2022-09-19T14:22:36.758Z,0.86
2022-09-19T14:26:40.877Z,3.57
2022-09-19T14:29:46.252Z,1.14
2022-09-19T14:31:35.999Z,0.99
2022-09-19T14:33:23.870Z,1.14
2022-09-19T14:35:08.560Z,0.79
2022-09-19T14:36:49.668Z,0.97
2022-09-19T14:38:15.629Z,0.74
2022-09-19T14:39:46.547Z,0.80
2022-09-19T14:41:19.929Z,0.99
2022-09-19T14:44:45.997Z,1.02
2022-09-19T14:46:22.035Z,1.24
2022-09-19T14:47:45.389Z,0.80
2022-09-19T14:49:25.156Z,0.90
2022-09-19T14:50:47.378Z,0.98
2022-09-19T14:52:17.435Z,1.06
2022-09-19T14:53:38.463Z,1.39
2022-09-19T14:55:06.144Z,1.11
2022-09-19T14:56:29.010Z,1.24
2022-09-19T14:57:50.578Z,1.01
2022-09-19T14:59:18.092Z,0.86
2022-09-19T15:00:40.037Z,0.93
2022-09-19T15:02:10.225Z,1.38
2022-09-19T15:03:50.505Z,2.79
2022-09-19T15:05:15.610Z,1.11
2022-09-19T15:06:51.409Z,1.15
2022-09-19T15:09:38.901Z,1.11
2022-09-19T15:11:02.441Z,1.00
2022-09-19T15:12:32.064Z,0.70
2022-09-19T15:13:53.785Z,0.91
2022-09-19T15:15:15.473Z,1.32
2022-09-19T15:16:38.590Z,1.10
2022-09-19T15:17:59.689Z,1.14
2022-09-19T15:19:21.123Z,0.93
2022-09-19T15:20:42.707Z,0.74
2022-09-19T15:22:04.326Z,1.12
2022-09-19T15:23:27.048Z,0.87
2022-09-19T15:24:48.515Z,0.60
2022-09-19T15:26:15.121Z,0.58
2022-09-19T15:27:39.969Z,0.69
2022-09-19T15:30:20.191Z,0.74
2022-09-19T15:31:42.023Z,0.80
2022-09-19T15:33:08.583Z,1.21
2022-09-19T15:34:30.312Z,0.70
2022-09-19T15:35:52.075Z,0.82
2022-09-19T15:37:13.981Z,0.92
2022-09-19T15:38:35.621Z,0.66
2022-09-19T15:39:57.310Z,0.59
2022-09-19T15:41:19.275Z,0.59
2022-09-19T15:42:42.313Z,1.07
2022-09-19T15:44:04.121Z,1.08
2022-09-19T15:45:34.401Z,0.96
2022-09-19T15:48:21.857Z,0.83
2022-09-19T15:49:45.017Z,0.79
2022-09-19T15:51:07.498Z,0.94
2022-09-19T15:52:32.447Z,0.78
2022-09-19T15:53:53.904Z,0.94
2022-09-19T15:55:25.038Z,0.81
2022-09-19T15:56:47.356Z,0.63
2022-09-19T15:58:12.573Z,0.55
2022-09-19T15:59:37.846Z,0.83
2022-09-19T16:02:16.849Z,1.13
2022-09-19T16:03:38.566Z,0.76
2022-09-19T16:05:20.217Z,0.74
2022-09-19T16:06:44.229Z,0.88
2022-09-19T16:08:22.074Z,0.68
2022-09-19T16:10:04.870Z,0.81
2022-09-19T16:11:29.251Z,0.80
2022-09-19T16:12:50.516Z,0.95
2022-09-19T16:15:38.633Z,0.93
2022-09-19T16:17:00.330Z,0.82
2022-09-19T16:18:21.753Z,1.03
2022-09-19T16:19:44.555Z,0.83
2022-09-19T16:22:23.765Z,0.82
2022-09-19T16:23:47.215Z,0.85
2022-09-19T16:25:11.570Z,1.09
2022-09-19T16:26:33.617Z,1.10
2022-09-19T16:27:54.751Z,1.36
2022-09-19T16:29:15.786Z,1.79
2022-09-19T16:32:03.140Z,1.09
2022-09-19T16:33:35.820Z,0.84
2022-09-19T16:34:58.156Z,0.96
2022-09-19T16:36:21.422Z,0.93
2022-09-19T16:37:43.068Z,0.87
2022-09-19T16:39:22.263Z,1.47
2022-09-19T16:40:47.844Z,1.22
2022-09-19T16:43:36.016Z,1.58
2022-09-19T16:45:17.663Z,1.37
2022-09-19T16:46:39.647Z,1.14
2022-09-19T16:48:01.349Z,1.40
2022-09-19T16:49:22.629Z,1.29
2022-09-19T16:50:44.695Z,1.16
2022-09-19T16:52:05.710Z,0.92
2022-09-19T16:53:27.691Z,0.93
2022-09-19T16:54:50.279Z,0.84
2022-09-19T16:56:16.116Z,1.01
2022-09-19T16:57:37.355Z,0.88
2022-09-19T16:59:00.951Z,0.90
2022-09-19T17:00:23.923Z,1.00
2022-09-19T17:01:50.314Z,2.04
2022-09-19T17:03:08.820Z,1.53
2022-09-19T17:04:30.093Z,1.20
2022-09-19T17:05:51.403Z,2.08
2022-09-19T17:07:12.768Z,2.06
2022-09-19T17:08:34.206Z,1.13
2022-09-19T17:09:55.797Z,0.98
2022-09-19T17:11:16.933Z,1.57
2022-09-19T17:12:38.176Z,1.16
2022-09-19T17:13:59.557Z,1.31
2022-09-19T17:15:25.780Z,1.22
2022-09-19T17:16:47.445Z,1.16
2022-09-19T17:18:09.312Z,0.83
2022-09-19T17:19:30.669Z,1.27
2022-09-19T17:20:52.658Z,1.51
2022-09-19T17:22:14.825Z,2.02
2022-09-19T17:23:36.536Z,2.03
2022-09-19T17:24:58.561Z,2.26
2022-09-19T17:26:20.376Z,2.71
2022-09-19T17:27:41.949Z,2.99
2022-09-19T17:29:03.338Z,2.73
2022-09-19T17:30:26.420Z,2.64
2022-09-19T17:31:47.573Z,2.63
2022-09-19T17:33:10.023Z,2.27
2022-09-19T17:34:31.340Z,1.71
2022-09-19T17:35:52.734Z,1.84
2022-09-19T17:37:14.035Z,1.74
2022-09-19T17:38:35.484Z,2.22
2022-09-19T17:39:56.594Z,1.73
2022-09-19T17:41:17.834Z,1.84
2022-09-19T17:42:39.502Z,1.33
2022-09-19T17:44:02.786Z,1.80
2022-09-19T17:45:25.038Z,1.42
2022-09-19T17:46:49.438Z,1.50
2022-09-19T17:48:11.756Z,1.42
2022-09-19T17:49:32.848Z,1.33
2022-09-19T17:50:54.089Z,1.60
2022-09-19T17:52:15.233Z,1.49
2022-09-19T17:53:36.601Z,1.69
2022-09-19T17:54:57.785Z,1.56
2022-09-19T17:56:22.231Z,1.43
2022-09-19T17:57:43.506Z,1.45
2022-09-19T17:59:04.761Z,1.79
2022-09-19T18:00:28.526Z,1.87
2022-09-19T18:01:50.053Z,2.06
2022-09-19T18:03:11.094Z,1.69
2022-09-19T18:04:32.361Z,1.61
2022-09-19T18:05:56.948Z,1.57
2022-09-19T18:07:18.005Z,1.71
2022-09-19T18:08:39.245Z,1.66
2022-09-19T18:10:01.219Z,1.34
2022-09-19T18:11:22.934Z,1.64
2022-09-19T18:12:44.195Z,1.77
2022-09-19T18:14:07.522Z,1.66
2022-09-19T18:15:33.443Z,1.75
2022-09-19T18:16:55.945Z,1.59
2022-09-19T18:18:17.377Z,1.82
2022-09-19T18:19:38.599Z,1.71
2022-09-19T18:21:00.089Z,1.74
2022-09-19T18:22:21.219Z,1.78
2022-09-19T18:23:42.635Z,1.69
2022-09-19T18:25:04.222Z,1.48
2022-09-19T18:27:47.744Z,1.61
2022-09-19T18:29:12.584Z,1.67
2022-09-19T18:30:33.637Z,1.64
2022-09-19T18:31:54.882Z,1.79
2022-09-19T18:33:15.856Z,1.79
2022-09-19T18:34:37.397Z,1.57
2022-09-19T18:36:04.113Z,1.57
2022-09-19T18:37:25.076Z,1.70
2022-09-19T18:38:46.537Z,1.44
2022-09-19T18:40:09.859Z,1.64
2022-09-19T18:41:31.337Z,1.39
2022-09-19T18:42:52.643Z,1.44
2022-09-19T18:44:13.903Z,1.47
2022-09-19T18:45:36.205Z,1.39
2022-09-19T18:46:57.585Z,1.23
2022-09-19T18:48:19.192Z,1.45
2022-09-19T18:49:40.693Z,1.16
2022-09-19T18:51:06.107Z,1.30
2022-09-19T18:52:30.238Z,1.28
2022-09-19T18:53:53.480Z,1.37
2022-09-19T18:55:14.627Z,1.37
2022-09-19T18:56:35.934Z,1.43
2022-09-19T18:57:56.990Z,1.22
2022-09-19T18:59:17.969Z,1.33
2022-09-19T19:00:39.996Z,1.23
2022-09-19T19:02:01.991Z,1.28
2022-09-19T19:03:23.423Z,1.42
2022-09-19T19:04:45.053Z,1.28
2022-09-19T19:06:16.806Z,1.29
2022-09-19T19:07:31.624Z,1.24
2022-09-19T19:08:53.450Z,1.36
2022-09-19T19:10:15.860Z,1.49
2022-09-19T19:12:52.916Z,1.69
2022-09-19T19:14:12.704Z,1.50
2022-09-19T19:15:35.987Z,1.49
2022-09-19T19:16:57.695Z,1.49
2022-09-19T19:18:19.362Z,1.38
2022-09-19T19:19:40.699Z,1.76
2022-09-19T19:21:06.528Z,1.63
2022-09-19T19:22:28.834Z,1.43
2022-09-19T19:23:50.285Z,1.47
2022-09-19T19:25:11.655Z,1.49
2022-09-19T19:26:35.102Z,1.29
2022-09-19T19:29:17.862Z,1.46
2022-09-19T19:30:40.057Z,1.27
2022-09-19T19:32:01.478Z,1.21
2022-09-19T19:33:23.640Z,1.34
2022-09-19T19:34:45.020Z,1.20
2022-09-19T19:36:11.849Z,1.52
2022-09-19T19:37:33.575Z,1.36
2022-09-19T19:38:54.978Z,1.30
2022-09-19T19:40:16.738Z,1.38
2022-09-19T19:41:38.087Z,1.18
2022-09-19T19:42:59.538Z,1.31
2022-09-19T19:44:20.657Z,1.44
2022-09-19T19:45:42.217Z,1.27
2022-09-19T19:47:03.838Z,1.62
2022-09-19T19:48:24.977Z,1.43
2022-09-19T19:49:46.237Z,1.69
2022-09-19T19:51:12.885Z,1.45
2022-09-19T19:52:34.012Z,1.04
2022-09-19T19:53:56.256Z,1.11
2022-09-19T19:55:17.764Z,1.08
2022-09-19T19:56:39.710Z,1.01
2022-09-19T19:58:01.221Z,1.37
2022-09-19T19:59:23.972Z,1.31
2022-09-19T20:00:45.564Z,1.53
2022-09-19T20:02:10.714Z,1.29
2022-09-19T20:03:32.774Z,1.08
2022-09-19T20:04:53.892Z,1.09
2022-09-19T20:06:19.907Z,1.17
2022-09-19T20:07:41.226Z,1.37
2022-09-19T20:09:02.968Z,1.50
2022-09-19T20:10:26.359Z,1.30
2022-09-19T20:12:57.159Z,1.46
2022-09-19T20:14:18.700Z,1.74
2022-09-19T20:15:40.255Z,1.71
2022-09-19T20:17:02.142Z,2.12
2022-09-19T20:18:23.299Z,1.94
2022-09-19T20:19:44.628Z,1.94
2022-09-19T20:21:10.514Z,1.78
2022-09-19T20:22:31.857Z,1.57
2022-09-19T20:23:53.800Z,1.59
2022-09-19T20:25:14.886Z,1.65
2022-09-19T20:26:36.675Z,1.50
2022-09-19T20:27:57.898Z,1.68
2022-09-19T20:29:19.867Z,1.73
2022-09-19T20:30:42.931Z,1.49
2022-09-19T20:32:04.742Z,2.12
2022-09-19T20:33:27.706Z,1.86
2022-09-19T20:34:49.165Z,1.98
2022-09-19T20:36:11.426Z,1.86
2022-09-19T20:37:32.763Z,1.86
2022-09-19T20:38:54.748Z,1.71
2022-09-19T20:40:16.457Z,2.11
2022-09-19T20:41:38.045Z,1.98
2022-09-19T20:42:59.471Z,2.20
2022-09-19T20:44:21.048Z,2.16
2022-09-19T20:45:42.270Z,2.31
2022-09-19T20:47:03.547Z,2.01
2022-09-19T20:48:26.704Z,2.39
2022-09-19T20:51:10.952Z,2.27
2022-09-19T20:52:32.448Z,2.21
2022-09-19T20:53:53.887Z,2.17
2022-09-19T20:55:14.873Z,1.98
2022-09-19T20:56:37.781Z,1.86
2022-09-19T20:57:59.381Z,2.59
2022-09-19T20:59:21.035Z,2.33
2022-09-19T21:00:42.655Z,2.33
2022-09-19T21:02:03.880Z,2.47
2022-09-19T21:03:25.068Z,2.57
2022-09-19T21:04:46.305Z,2.89
2022-09-19T21:06:08.793Z,2.97
2022-09-19T21:07:30.262Z,2.72
2022-09-19T21:08:52.811Z,2.81
2022-09-19T21:10:15.612Z,2.36
2022-09-19T21:11:37.685Z,1.98
2022-09-19T21:12:59.300Z,2.08
2022-09-19T21:14:20.953Z,1.98
2022-09-19T21:15:43.710Z,1.91
2022-09-19T21:17:06.235Z,1.83
2022-09-19T21:18:27.427Z,1.81
2022-09-19T21:19:49.052Z,1.77
2022-09-19T21:21:12.045Z,1.57
2022-09-19T21:22:33.533Z,1.39
2022-09-19T21:23:55.411Z,1.67
2022-09-19T21:25:16.912Z,1.68
2022-09-19T21:26:38.670Z,1.66
2022-09-19T21:28:00.059Z,1.92
2022-09-19T21:29:21.827Z,1.59
2022-09-19T21:30:48.979Z,1.55
2022-09-19T21:32:11.063Z,1.61
2022-09-19T21:33:32.565Z,1.59
2022-09-19T21:34:54.323Z,1.82
2022-09-19T21:36:17.343Z,1.74
2022-09-19T21:37:38.717Z,1.67
2022-09-19T21:39:00.240Z,1.53
2022-09-19T21:40:25.074Z,1.48
2022-09-19T21:41:46.562Z,1.37
2022-09-19T21:43:08.043Z,1.38
2022-09-19T21:44:29.138Z,1.51